sensor_id;sensor_type;location;lat;lon;timestamp;pressure;altitude;pressure_sealevel;temperature;humidity
77639;BME280;66802;52.574;14.398;2023-08-01T03:01:45;99954.41;;;17.07;90.93
77639;BME280;66802;52.574;14.398;2023-08-01T03:04:10;99956.91;;;17.15;90.49
77639;BME280;66802;52.574;14.398;2023-08-01T03:06:40;99946.00;;;17.15;90.67
77639;BME280;66802;52.574;14.398;2023-08-01T03:09:05;99951.44;;;17.15;90.57
77639;BME280;66802;52.574;14.398;2023-08-01T03:11:37;99952.50;;;17.14;90.73
77639;BME280;66802;52.574;14.398;2023-08-01T03:14:03;99946.63;;;17.17;90.56
77639;BME280;66802;52.574;14.398;2023-08-01T03:16:30;99940.09;;;17.18;90.32
77639;BME280;66802;52.574;14.398;2023-08-01T03:18:56;99945.09;;;17.21;89.90
77639;BME280;66802;52.574;14.398;2023-08-01T03:21:21;99938.59;;;17.22;89.69
77639;BME280;66802;52.574;14.398;2023-08-01T03:23:47;99934.66;;;17.18;89.94
77639;BME280;66802;52.574;14.398;2023-08-01T03:26:13;99932.94;;;17.24;89.37
77639;BME280;66802;52.574;14.398;2023-08-01T03:28:40;99929.38;;;17.23;90.02
77639;BME280;66802;52.574;14.398;2023-08-01T03:31:06;99930.41;;;17.22;89.81
77639;BME280;66802;52.574;14.398;2023-08-01T03:33:32;99923.91;;;17.23;89.52
77639;BME280;66802;52.574;14.398;2023-08-01T03:35:58;99918.25;;;17.25;89.45
77639;BME280;66802;52.574;14.398;2023-08-01T03:38:23;99913.19;;;17.28;89.40
77639;BME280;66802;52.574;14.398;2023-08-01T03:40:49;99909.84;;;17.26;89.71
77639;BME280;66802;52.574;14.398;2023-08-01T03:43:14;99907.75;;;17.28;89.07
77639;BME280;66802;52.574;14.398;2023-08-01T03:45:40;99914.88;;;17.23;89.65
77639;BME280;66802;52.574;14.398;2023-08-01T03:48:05;99912.75;;;17.31;89.38
77639;BME280;66802;52.574;14.398;2023-08-01T03:50:31;99909.44;;;17.23;89.56
77639;BME280;66802;52.574;14.398;2023-08-01T03:52:57;99903.13;;;17.22;89.89
77639;BME280;66802;52.574;14.398;2023-08-01T03:55:22;99899.16;;;17.25;89.32
77639;BME280;66802;52.574;14.398;2023-08-01T03:57:48;99886.16;;;17.20;89.97
77639;BME280;66802;52.574;14.398;2023-08-01T04:00:13;99888.66;;;17.28;89.46
77639;BME280;66802;52.574;14.398;2023-08-01T04:02:40;99892.41;;;17.27;89.53
77639;BME280;66802;52.574;14.398;2023-08-01T04:05:06;99888.66;;;17.28;90.04
77639;BME280;66802;52.574;14.398;2023-08-01T04:07:32;99881.66;;;17.32;89.40
77639;BME280;66802;52.574;14.398;2023-08-01T04:09:57;99884.41;;;17.32;89.32
77639;BME280;66802;52.574;14.398;2023-08-01T04:12:23;99878.78;;;17.27;89.79
77639;BME280;66802;52.574;14.398;2023-08-01T04:14:48;99885.06;;;17.28;89.73
77639;BME280;66802;52.574;14.398;2023-08-01T04:17:14;99876.22;;;17.32;89.65
77639;BME280;66802;52.574;14.398;2023-08-01T04:19:39;99878.72;;;17.34;89.42
77639;BME280;66802;52.574;14.398;2023-08-01T04:22:05;99880.47;;;17.28;89.38
77639;BME280;66802;52.574;14.398;2023-08-01T04:24:31;99880.63;;;17.33;89.53
77639;BME280;66802;52.574;14.398;2023-08-01T04:26:56;99872.06;;;17.30;89.65
77639;BME280;66802;52.574;14.398;2023-08-01T04:29:22;99867.16;;;17.38;89.25
77639;BME280;66802;52.574;14.398;2023-08-01T04:31:47;99869.50;;;17.35;89.33
77639;BME280;66802;52.574;14.398;2023-08-01T04:34:13;99877.72;;;17.28;90.07
77639;BME280;66802;52.574;14.398;2023-08-01T04:36:38;99877.50;;;17.30;90.04
77639;BME280;66802;52.574;14.398;2023-08-01T04:39:04;99870.94;;;17.37;89.42
77639;BME280;66802;52.574;14.398;2023-08-01T04:41:29;99866.13;;;17.39;89.21
77639;BME280;66802;52.574;14.398;2023-08-01T04:43:55;99856.03;;;17.40;89.12
77639;BME280;66802;52.574;14.398;2023-08-01T04:46:20;99849.91;;;17.44;89.10
77639;BME280;66802;52.574;14.398;2023-08-01T04:48:46;99848.44;;;17.42;88.87
77639;BME280;66802;52.574;14.398;2023-08-01T04:51:12;99851.56;;;17.45;88.88
77639;BME280;66802;52.574;14.398;2023-08-01T04:53:37;99842.56;;;17.45;88.81
77639;BME280;66802;52.574;14.398;2023-08-01T04:56:03;99843.41;;;17.45;88.76
77639;BME280;66802;52.574;14.398;2023-08-01T04:58:28;99842.97;;;17.48;88.83
77639;BME280;66802;52.574;14.398;2023-08-01T05:00:56;99836.44;;;17.49;88.86
77639;BME280;66802;52.574;14.398;2023-08-01T05:03:21;99834.09;;;17.53;88.26
77639;BME280;66802;52.574;14.398;2023-08-01T05:05:47;99835.75;;;17.54;88.46
77639;BME280;66802;52.574;14.398;2023-08-01T05:08:12;99833.25;;;17.52;88.76
77639;BME280;66802;52.574;14.398;2023-08-01T05:10:38;99837.66;;;17.53;88.70
77639;BME280;66802;52.574;14.398;2023-08-01T05:13:03;99828.34;;;17.68;88.58
77639;BME280;66802;52.574;14.398;2023-08-01T05:15:29;99823.28;;;17.71;88.36
77639;BME280;66802;52.574;14.398;2023-08-01T05:17:54;99825.50;;;17.81;87.77
77639;BME280;66802;52.574;14.398;2023-08-01T05:20:21;99814.97;;;17.84;87.67
77639;BME280;66802;52.574;14.398;2023-08-01T05:22:46;99819.53;;;17.91;87.04
77639;BME280;66802;52.574;14.398;2023-08-01T05:25:12;99816.13;;;17.95;87.04
77639;BME280;66802;52.574;14.398;2023-08-01T05:27:37;99811.75;;;17.94;86.79
77639;BME280;66802;52.574;14.398;2023-08-01T05:30:03;99811.75;;;17.94;86.81
77639;BME280;66802;52.574;14.398;2023-08-01T05:32:29;99814.47;;;17.94;87.30
77639;BME280;66802;52.574;14.398;2023-08-01T05:34:54;99816.72;;;17.97;86.83
77639;BME280;66802;52.574;14.398;2023-08-01T05:37:20;99811.88;;;17.99;86.61
77639;BME280;66802;52.574;14.398;2023-08-01T05:39:45;99804.53;;;18.00;86.76
77639;BME280;66802;52.574;14.398;2023-08-01T05:42:11;99802.72;;;18.12;86.86
77639;BME280;66802;52.574;14.398;2023-08-01T05:44:36;99800.16;;;18.17;86.72
77639;BME280;66802;52.574;14.398;2023-08-01T05:47:02;99794.00;;;18.21;86.00
77639;BME280;66802;52.574;14.398;2023-08-01T05:49:28;99789.97;;;18.24;85.90
77639;BME280;66802;52.574;14.398;2023-08-01T05:51:55;99799.16;;;18.30;85.51
77639;BME280;66802;52.574;14.398;2023-08-01T05:54:20;99788.84;;;18.32;85.21
77639;BME280;66802;52.574;14.398;2023-08-01T05:56:46;99790.50;;;18.33;85.20
77639;BME280;66802;52.574;14.398;2023-08-01T05:59:12;99795.34;;;18.31;85.07
77639;BME280;66802;52.574;14.398;2023-08-01T06:01:37;99786.72;;;18.34;84.35
77639;BME280;66802;52.574;14.398;2023-08-01T06:04:03;99779.78;;;18.31;84.53
77639;BME280;66802;52.574;14.398;2023-08-01T06:06:28;99775.03;;;18.27;84.93
77639;BME280;66802;52.574;14.398;2023-08-01T06:08:54;99777.78;;;18.27;85.12
77639;BME280;66802;52.574;14.398;2023-08-01T06:11:20;99781.34;;;18.27;84.66
77639;BME280;66802;52.574;14.398;2023-08-01T06:13:45;99778.88;;;18.19;85.23
77639;BME280;66802;52.574;14.398;2023-08-01T06:16:11;99777.22;;;18.18;84.87
77639;BME280;66802;52.574;14.398;2023-08-01T06:18:36;99779.59;;;18.14;85.29
77639;BME280;66802;52.574;14.398;2023-08-01T06:21:02;99774.56;;;18.11;85.42
77639;BME280;66802;52.574;14.398;2023-08-01T06:23:28;99770.56;;;18.14;85.71
77639;BME280;66802;52.574;14.398;2023-08-01T06:25:53;99770.56;;;18.14;86.28
77639;BME280;66802;52.574;14.398;2023-08-01T06:28:19;99775.19;;;18.13;86.33
77639;BME280;66802;52.574;14.398;2023-08-01T06:30:45;99777.28;;;18.11;86.48
77639;BME280;66802;52.574;14.398;2023-08-01T06:33:10;99769.72;;;18.13;87.63
77639;BME280;66802;52.574;14.398;2023-08-01T06:35:36;99778.13;;;18.12;87.68
77639;BME280;66802;52.574;14.398;2023-08-01T06:38:02;99765.97;;;18.08;88.19
77639;BME280;66802;52.574;14.398;2023-08-01T06:40:27;99767.66;;;18.09;88.35
77639;BME280;66802;52.574;14.398;2023-08-01T06:42:53;99766.69;;;18.03;88.66
77639;BME280;66802;52.574;14.398;2023-08-01T06:45:18;99780.69;;;18.07;88.76
77639;BME280;66802;52.574;14.398;2023-08-01T06:47:44;99772.81;;;17.99;89.65
77639;BME280;66802;52.574;14.398;2023-08-01T06:50:09;99767.75;;;18.02;89.81
77639;BME280;66802;52.574;14.398;2023-08-01T06:52:35;99768.41;;;17.98;89.43
77639;BME280;66802;52.574;14.398;2023-08-01T06:55:00;99765.53;;;17.93;90.56
77639;BME280;66802;52.574;14.398;2023-08-01T06:57:26;99760.16;;;18.04;89.52
77639;BME280;66802;52.574;14.398;2023-08-01T06:59:52;99767.28;;;18.05;89.98
77639;BME280;66802;52.574;14.398;2023-08-01T07:02:18;99757.66;;;18.03;90.27
77639;BME280;66802;52.574;14.398;2023-08-01T07:04:44;99754.13;;;17.96;90.68
77639;BME280;66802;52.574;14.398;2023-08-01T07:07:09;99760.28;;;18.09;90.48
77639;BME280;66802;52.574;14.398;2023-08-01T07:09:35;99762.34;;;18.14;89.83
77639;BME280;66802;52.574;14.398;2023-08-01T07:12:00;99753.38;;;18.07;90.92
77639;BME280;66802;52.574;14.398;2023-08-01T07:14:26;99763.25;;;18.08;91.33
77639;BME280;66802;52.574;14.398;2023-08-01T07:16:51;99757.72;;;18.14;90.34
77639;BME280;66802;52.574;14.398;2023-08-01T07:19:17;99763.63;;;18.11;90.42
77639;BME280;66802;52.574;14.398;2023-08-01T07:21:42;99762.97;;;18.16;89.99
77639;BME280;66802;52.574;14.398;2023-08-01T07:24:10;99766.16;;;18.13;90.86
77639;BME280;66802;52.574;14.398;2023-08-01T07:26:36;99767.22;;;18.12;90.96
77639;BME280;66802;52.574;14.398;2023-08-01T07:29:01;99758.00;;;18.06;91.08
77639;BME280;66802;52.574;14.398;2023-08-01T07:31:27;99761.56;;;18.07;91.43
77639;BME280;66802;52.574;14.398;2023-08-01T07:33:52;99752.19;;;18.03;91.60
77639;BME280;66802;52.574;14.398;2023-08-01T07:36:18;99757.34;;;18.11;90.65
77639;BME280;66802;52.574;14.398;2023-08-01T07:38:43;99754.22;;;18.07;91.20
77639;BME280;66802;52.574;14.398;2023-08-01T07:41:09;99755.44;;;18.11;91.23
77639;BME280;66802;52.574;14.398;2023-08-01T07:43:35;99747.91;;;18.07;91.48
77639;BME280;66802;52.574;14.398;2023-08-01T07:46:00;99752.09;;;18.09;91.42
77639;BME280;66802;52.574;14.398;2023-08-01T07:48:26;99751.22;;;18.15;91.23
77639;BME280;66802;52.574;14.398;2023-08-01T07:50:52;99758.56;;;18.15;91.31
77639;BME280;66802;52.574;14.398;2023-08-01T07:53:17;99750.19;;;18.10;91.26
77639;BME280;66802;52.574;14.398;2023-08-01T07:55:43;99744.28;;;18.13;90.67
77639;BME280;66802;52.574;14.398;2023-08-01T07:58:08;99744.13;;;18.08;91.65
77639;BME280;66802;52.574;14.398;2023-08-01T08:00:37;99742.09;;;18.03;92.47
77639;BME280;66802;52.574;14.398;2023-08-01T08:03:02;99738.09;;;18.06;92.09
77639;BME280;66802;52.574;14.398;2023-08-01T08:05:28;99734.88;;;18.09;92.27
77639;BME280;66802;52.574;14.398;2023-08-01T08:07:54;99737.38;;;18.10;91.90
77639;BME280;66802;52.574;14.398;2023-08-01T08:10:19;99735.25;;;18.12;91.83
77639;BME280;66802;52.574;14.398;2023-08-01T08:12:45;99731.91;;;18.10;91.53
77639;BME280;66802;52.574;14.398;2023-08-01T08:15:10;99728.50;;;18.15;91.60
77639;BME280;66802;52.574;14.398;2023-08-01T08:17:36;99720.53;;;18.13;91.43
77639;BME280;66802;52.574;14.398;2023-08-01T08:20:02;99719.31;;;18.09;91.45
77639;BME280;66802;52.574;14.398;2023-08-01T08:22:28;99720.16;;;18.10;91.96
77639;BME280;66802;52.574;14.398;2023-08-01T08:24:54;99715.53;;;18.10;92.18
77639;BME280;66802;52.574;14.398;2023-08-01T08:27:19;99715.44;;;17.99;93.17
77639;BME280;66802;52.574;14.398;2023-08-01T08:29:45;99709.63;;;18.13;92.49
77639;BME280;66802;52.574;14.398;2023-08-01T08:32:10;99710.00;;;18.17;92.15
77639;BME280;66802;52.574;14.398;2023-08-01T08:34:36;99717.50;;;18.21;92.45
77639;BME280;66802;52.574;14.398;2023-08-01T08:37:01;99717.41;;;18.28;91.78
77639;BME280;66802;52.574;14.398;2023-08-01T08:39:27;99711.94;;;18.28;91.60
77639;BME280;66802;52.574;14.398;2023-08-01T08:41:53;99727.03;;;18.31;92.32
77639;BME280;66802;52.574;14.398;2023-08-01T08:44:19;99729.16;;;18.29;92.24
77639;BME280;66802;52.574;14.398;2023-08-01T08:46:52;99727.66;;;18.33;92.04
77639;BME280;66802;52.574;14.398;2023-08-01T08:49:19;99727.03;;;18.31;92.54
77639;BME280;66802;52.574;14.398;2023-08-01T08:51:49;99720.69;;;18.37;92.84
77639;BME280;66802;52.574;14.398;2023-08-01T08:54:16;99725.91;;;18.38;92.04
77639;BME280;66802;52.574;14.398;2023-08-01T08:56:43;99729.09;;;18.35;92.90
77639;BME280;66802;52.574;14.398;2023-08-01T08:59:09;99726.44;;;18.47;92.96
77639;BME280;66802;52.574;14.398;2023-08-01T09:01:36;99717.16;;;18.48;93.43
77639;BME280;66802;52.574;14.398;2023-08-01T09:04:03;99714.56;;;18.53;93.62
77639;BME280;66802;52.574;14.398;2023-08-01T09:06:40;99721.56;;;18.67;92.56
77639;BME280;66802;52.574;14.398;2023-08-01T09:09:13;99720.25;;;18.70;93.62
77639;BME280;66802;52.574;14.398;2023-08-01T09:14:12;99711.75;;;18.89;91.81
77639;BME280;66802;52.574;14.398;2023-08-01T09:16:40;99697.13;;;18.95;90.36
77639;BME280;66802;52.574;14.398;2023-08-01T09:19:21;99693.34;;;18.96;91.20
77639;BME280;66802;52.574;14.398;2023-08-01T09:21:47;99689.41;;;19.04;89.20
77639;BME280;66802;52.574;14.398;2023-08-01T09:24:21;99681.13;;;19.11;90.03
77639;BME280;66802;52.574;14.398;2023-08-01T09:26:50;99692.16;;;19.16;89.71
77639;BME280;66802;52.574;14.398;2023-08-01T09:29:17;99696.25;;;19.25;89.24
77639;BME280;66802;52.574;14.398;2023-08-01T09:31:45;99704.34;;;19.31;91.07
77639;BME280;66802;52.574;14.398;2023-08-01T09:34:20;99708.88;;;19.49;89.44
77639;BME280;66802;52.574;14.398;2023-08-01T09:36:46;99695.34;;;19.54;89.80
77639;BME280;66802;52.574;14.398;2023-08-01T09:39:20;99700.22;;;19.52;87.58
77639;BME280;66802;52.574;14.398;2023-08-01T09:41:55;99703.03;;;19.46;85.77
77639;BME280;66802;52.574;14.398;2023-08-01T09:44:21;99687.31;;;19.41;86.61
77639;BME280;66802;52.574;14.398;2023-08-01T09:47:03;99683.16;;;19.39;86.41
77639;BME280;66802;52.574;14.398;2023-08-01T09:49:30;99690.19;;;19.35;85.82
77639;BME280;66802;52.574;14.398;2023-08-01T09:51:57;99693.75;;;19.35;86.04
77639;BME280;66802;52.574;14.398;2023-08-01T09:54:24;99692.66;;;19.36;85.52
77639;BME280;66802;52.574;14.398;2023-08-01T09:56:52;99690.91;;;19.42;85.61
77639;BME280;66802;52.574;14.398;2023-08-01T09:59:20;99686.03;;;19.44;85.43
77639;BME280;66802;52.574;14.398;2023-08-01T10:01:48;99681.97;;;19.46;84.44
77639;BME280;66802;52.574;14.398;2023-08-01T10:04:19;99677.72;;;19.50;85.66
77639;BME280;66802;52.574;14.398;2023-08-01T10:06:50;99687.81;;;19.61;85.44
77639;BME280;66802;52.574;14.398;2023-08-01T10:09:17;99677.47;;;19.63;84.69
77639;BME280;66802;52.574;14.398;2023-08-01T10:11:43;99674.72;;;19.75;86.16
77639;BME280;66802;52.574;14.398;2023-08-01T10:14:10;99686.25;;;19.89;85.47
77639;BME280;66802;52.574;14.398;2023-08-01T10:16:37;99675.84;;;20.02;83.66
77639;BME280;66802;52.574;14.398;2023-08-01T10:19:06;99672.25;;;20.14;85.53
77639;BME280;66802;52.574;14.398;2023-08-01T10:21:32;99658.84;;;20.29;83.90
77639;BME280;66802;52.574;14.398;2023-08-01T10:23:59;99654.44;;;20.39;82.23
77639;BME280;66802;52.574;14.398;2023-08-01T10:26:26;99662.81;;;20.61;81.65
77639;BME280;66802;52.574;14.398;2023-08-01T10:28:52;99659.06;;;20.67;80.63
77639;BME280;66802;52.574;14.398;2023-08-01T10:31:19;99648.19;;;20.72;81.42
77639;BME280;66802;52.574;14.398;2023-08-01T10:33:48;99643.53;;;20.90;82.43
77639;BME280;66802;52.574;14.398;2023-08-01T10:41:31;99650.00;;;21.67;75.04
77639;BME280;66802;52.574;14.398;2023-08-01T10:46:57;99655.84;;;21.54;77.15
77639;BME280;66802;52.574;14.398;2023-08-01T10:49:42;99651.28;;;21.81;78.27
77639;BME280;66802;52.574;14.398;2023-08-01T10:52:35;99648.03;;;21.84;71.56
77639;BME280;66802;52.574;14.398;2023-08-01T10:55:02;99645.31;;;21.84;72.63
77639;BME280;66802;52.574;14.398;2023-08-01T10:57:35;99640.69;;;21.90;70.71
77639;BME280;66802;52.574;14.398;2023-08-01T11:00:03;99634.94;;;21.92;71.31
77639;BME280;66802;52.574;14.398;2023-08-01T11:02:35;99629.50;;;21.97;71.86
77639;BME280;66802;52.574;14.398;2023-08-01T11:05:04;99628.94;;;21.95;71.66
77639;BME280;66802;52.574;14.398;2023-08-01T11:07:30;99622.97;;;21.81;69.76
77639;BME280;66802;52.574;14.398;2023-08-01T11:12:36;99626.41;;;21.49;70.65
77639;BME280;66802;52.574;14.398;2023-08-01T11:15:02;99630.16;;;21.43;69.62
77639;BME280;66802;52.574;14.398;2023-08-01T11:17:28;99629.25;;;21.38;70.00
77639;BME280;66802;52.574;14.398;2023-08-01T11:20:05;99627.09;;;21.40;71.95
77639;BME280;66802;52.574;14.398;2023-08-01T11:22:31;99620.72;;;21.56;71.35
77639;BME280;66802;52.574;14.398;2023-08-01T11:24:57;99628.50;;;21.64;70.34
77639;BME280;66802;52.574;14.398;2023-08-01T11:27:24;99626.56;;;21.81;71.67
77639;BME280;66802;52.574;14.398;2023-08-01T11:29:50;99623.31;;;21.84;68.15
77639;BME280;66802;52.574;14.398;2023-08-01T11:32:16;99625.97;;;21.79;67.80
77639;BME280;66802;52.574;14.398;2023-08-01T11:34:42;99629.75;;;21.73;66.46
77639;BME280;66802;52.574;14.398;2023-08-01T11:37:14;99636.00;;;21.69;67.30
77639;BME280;66802;52.574;14.398;2023-08-01T11:39:40;99640.34;;;21.65;67.56
77639;BME280;66802;52.574;14.398;2023-08-01T11:42:06;99642.19;;;21.59;67.92
77639;BME280;66802;52.574;14.398;2023-08-01T11:44:32;99641.47;;;21.47;66.95
77639;BME280;66802;52.574;14.398;2023-08-01T11:46:57;99646.06;;;21.41;67.07
77639;BME280;66802;52.574;14.398;2023-08-01T11:49:23;99631.50;;;21.41;67.85
77639;BME280;66802;52.574;14.398;2023-08-01T11:51:49;99640.06;;;21.44;68.44
77639;BME280;66802;52.574;14.398;2023-08-01T11:54:15;99650.59;;;21.53;68.33
77639;BME280;66802;52.574;14.398;2023-08-01T11:56:42;99639.34;;;21.54;68.11
77639;BME280;66802;52.574;14.398;2023-08-01T11:59:14;99643.19;;;21.53;66.90
77639;BME280;66802;52.574;14.398;2023-08-01T12:01:41;99644.56;;;21.51;68.14
77639;BME280;66802;52.574;14.398;2023-08-01T12:04:07;99642.53;;;21.46;66.69
77639;BME280;66802;52.574;14.398;2023-08-01T12:06:33;99638.91;;;21.40;66.46
77639;BME280;66802;52.574;14.398;2023-08-01T12:09:08;99655.63;;;21.39;67.22
77639;BME280;66802;52.574;14.398;2023-08-01T12:11:34;99655.38;;;21.40;67.07
77639;BME280;66802;52.574;14.398;2023-08-01T12:14:01;99659.03;;;21.46;68.47
77639;BME280;66802;52.574;14.398;2023-08-01T12:16:28;99660.19;;;21.50;67.23
77639;BME280;66802;52.574;14.398;2023-08-01T12:18:53;99660.19;;;21.50;67.63
77639;BME280;66802;52.574;14.398;2023-08-01T12:21:19;99651.81;;;21.40;67.57
77639;BME280;66802;52.574;14.398;2023-08-01T12:23:44;99657.78;;;21.37;68.14
77639;BME280;66802;52.574;14.398;2023-08-01T12:26:10;99657.69;;;21.32;66.75
77639;BME280;66802;52.574;14.398;2023-08-01T12:28:36;99663.38;;;21.25;67.04
77639;BME280;66802;52.574;14.398;2023-08-01T12:31:02;99684.31;;;20.98;66.85
77639;BME280;66802;52.574;14.398;2023-08-01T12:33:28;99683.97;;;20.66;66.75
77639;BME280;66802;52.574;14.398;2023-08-01T12:35:54;99690.16;;;20.45;67.65
77639;BME280;66802;52.574;14.398;2023-08-01T12:38:19;99687.34;;;20.28;68.79
77639;BME280;66802;52.574;14.398;2023-08-01T12:40:45;99687.38;;;20.16;70.09
77639;BME280;66802;52.574;14.398;2023-08-01T12:43:12;99695.38;;;20.06;70.75
77639;BME280;66802;52.574;14.398;2023-08-01T12:45:38;99711.59;;;19.96;71.64
77639;BME280;66802;52.574;14.398;2023-08-01T12:48:03;99699.34;;;19.87;72.22
77639;BME280;66802;52.574;14.398;2023-08-01T12:50:29;99689.72;;;19.84;72.56
77639;BME280;66802;52.574;14.398;2023-08-01T12:52:54;99698.75;;;19.85;73.26
77639;BME280;66802;52.574;14.398;2023-08-01T12:55:20;99686.50;;;19.87;73.55
77639;BME280;66802;52.574;14.398;2023-08-01T12:57:45;99681.47;;;19.96;73.28
77639;BME280;66802;52.574;14.398;2023-08-01T13:00:11;99682.91;;;19.98;73.65
77639;BME280;66802;52.574;14.398;2023-08-01T13:02:37;99682.28;;;20.08;73.69
77639;BME280;66802;52.574;14.398;2023-08-01T13:05:04;99680.22;;;20.15;73.42
77639;BME280;66802;52.574;14.398;2023-08-01T13:07:30;99687.84;;;20.13;73.72
77639;BME280;66802;52.574;14.398;2023-08-01T13:10:00;99708.09;;;20.12;73.93
77639;BME280;66802;52.574;14.398;2023-08-01T13:12:26;99709.09;;;20.06;74.24
77639;BME280;66802;52.574;14.398;2023-08-01T13:14:52;99712.31;;;20.03;74.95
77639;BME280;66802;52.574;14.398;2023-08-01T13:17:17;99705.88;;;20.09;75.11
77639;BME280;66802;52.574;14.398;2023-08-01T13:19:43;99704.81;;;20.10;74.40
77639;BME280;66802;52.574;14.398;2023-08-01T13:22:09;99711.13;;;20.11;74.02
77639;BME280;66802;52.574;14.398;2023-08-01T13:24:36;99708.38;;;20.11;73.89
77639;BME280;66802;52.574;14.398;2023-08-01T13:27:01;99709.91;;;20.18;74.74
77639;BME280;66802;52.574;14.398;2023-08-01T13:29:27;99713.69;;;20.29;73.40
77639;BME280;66802;52.574;14.398;2023-08-01T13:31:52;99711.28;;;20.32;70.23
77639;BME280;66802;52.574;14.398;2023-08-01T13:34:18;99725.13;;;20.26;69.23
77639;BME280;66802;52.574;14.398;2023-08-01T13:36:43;99732.19;;;20.22;69.64
77639;BME280;66802;52.574;14.398;2023-08-01T13:39:09;99731.22;;;20.16;69.05
77639;BME280;66802;52.574;14.398;2023-08-01T13:41:35;99730.63;;;20.14;69.49
77639;BME280;66802;52.574;14.398;2023-08-01T13:44:00;99728.72;;;20.15;69.06
77639;BME280;66802;52.574;14.398;2023-08-01T13:46:26;99722.41;;;20.14;69.12
77639;BME280;66802;52.574;14.398;2023-08-01T13:48:51;99730.97;;;20.18;69.33
77639;BME280;66802;52.574;14.398;2023-08-01T13:51:17;99730.75;;;20.19;69.71
77639;BME280;66802;52.574;14.398;2023-08-01T13:53:42;99735.38;;;20.30;70.78
77639;BME280;66802;52.574;14.398;2023-08-01T13:56:09;99740.84;;;20.42;71.83
77639;BME280;66802;52.574;14.398;2023-08-01T13:58:35;99723.81;;;20.68;70.47
77639;BME280;66802;52.574;14.398;2023-08-01T14:01:04;99737.47;;;20.80;69.07
77639;BME280;66802;52.574;14.398;2023-08-01T14:03:34;99739.25;;;20.86;67.66
77639;BME280;66802;52.574;14.398;2023-08-01T14:06:10;99741.84;;;20.93;67.39
77639;BME280;66802;52.574;14.398;2023-08-01T14:08:38;99755.91;;;20.96;66.71
77639;BME280;66802;52.574;14.398;2023-08-01T14:11:05;99741.03;;;21.09;65.77
77639;BME280;66802;52.574;14.398;2023-08-01T14:13:32;99746.94;;;21.18;65.08
77639;BME280;66802;52.574;14.398;2023-08-01T14:15:58;99748.41;;;21.37;64.33
77639;BME280;66802;52.574;14.398;2023-08-01T14:18:24;99738.25;;;21.54;62.18
77639;BME280;66802;52.574;14.398;2023-08-01T14:20:50;99742.41;;;21.57;62.50
77639;BME280;66802;52.574;14.398;2023-08-01T14:23:15;99742.09;;;21.36;62.42
77639;BME280;66802;52.574;14.398;2023-08-01T14:25:41;99743.41;;;21.34;64.84
77639;BME280;66802;52.574;14.398;2023-08-01T14:28:07;99737.59;;;21.47;64.61
77639;BME280;66802;52.574;14.398;2023-08-01T14:30:32;99742.66;;;21.55;63.76
77639;BME280;66802;52.574;14.398;2023-08-01T14:33:03;99739.50;;;21.46;62.09
77639;BME280;66802;52.574;14.398;2023-08-01T14:35:29;99737.00;;;21.45;63.43
77639;BME280;66802;52.574;14.398;2023-08-01T14:37:54;99745.56;;;21.65;63.22
77639;BME280;66802;52.574;14.398;2023-08-01T14:40:24;99743.69;;;21.88;62.12
77639;BME280;66802;52.574;14.398;2023-08-01T14:42:49;99753.03;;;22.03;60.19
77639;BME280;66802;52.574;14.398;2023-08-01T14:45:16;99749.78;;;21.90;59.80
77639;BME280;66802;52.574;14.398;2023-08-01T14:47:42;99758.13;;;21.95;61.61
77639;BME280;66802;52.574;14.398;2023-08-01T14:50:11;99751.88;;;21.99;60.38
77639;BME280;66802;52.574;14.398;2023-08-01T14:52:37;99750.81;;;21.83;60.38
77639;BME280;66802;52.574;14.398;2023-08-01T14:55:04;99745.72;;;21.75;59.22
77639;BME280;66802;52.574;14.398;2023-08-01T14:57:30;99755.88;;;21.92;60.12
77639;BME280;66802;52.574;14.398;2023-08-01T14:59:55;99763.53;;;21.90;59.36
77639;BME280;66802;52.574;14.398;2023-08-01T15:02:22;99755.63;;;21.93;58.31
77639;BME280;66802;52.574;14.398;2023-08-01T15:04:54;99753.78;;;21.99;58.34
77639;BME280;66802;52.574;14.398;2023-08-01T15:07:25;99753.03;;;22.03;58.82
77639;BME280;66802;52.574;14.398;2023-08-01T15:09:52;99752.22;;;22.03;58.34
77639;BME280;66802;52.574;14.398;2023-08-01T15:12:21;99755.44;;;22.00;59.47
77639;BME280;66802;52.574;14.398;2023-08-01T15:14:52;99749.13;;;21.99;58.10
77639;BME280;66802;52.574;14.398;2023-08-01T15:17:18;99755.69;;;22.15;58.98
77639;BME280;66802;52.574;14.398;2023-08-01T15:19:44;99745.44;;;22.32;57.54
77639;BME280;66802;52.574;14.398;2023-08-01T15:22:10;99749.41;;;22.41;57.78
77639;BME280;66802;52.574;14.398;2023-08-01T15:24:35;99756.19;;;22.55;57.86
77639;BME280;66802;52.574;14.398;2023-08-01T15:27:01;99755.47;;;22.65;58.35
77639;BME280;66802;52.574;14.398;2023-08-01T15:29:27;99751.72;;;22.71;56.61
77639;BME280;66802;52.574;14.398;2023-08-01T15:31:52;99756.06;;;22.67;57.09
77639;BME280;66802;52.574;14.398;2023-08-01T15:34:18;99755.47;;;22.65;57.52
77639;BME280;66802;52.574;14.398;2023-08-01T15:36:48;99759.69;;;22.73;57.87
77639;BME280;66802;52.574;14.398;2023-08-01T15:39:18;99750.94;;;22.76;57.80
77639;BME280;66802;52.574;14.398;2023-08-01T15:41:43;99754.44;;;22.93;57.73
77639;BME280;66802;52.574;14.398;2023-08-01T15:44:44;99762.38;;;23.16;55.13
77639;BME280;66802;52.574;14.398;2023-08-01T15:47:10;99765.94;;;23.12;55.56
77639;BME280;66802;52.574;14.398;2023-08-01T15:49:36;99775.00;;;22.85;55.77
77639;BME280;66802;52.574;14.398;2023-08-01T15:52:01;99772.69;;;22.55;56.21
77639;BME280;66802;52.574;14.398;2023-08-01T15:54:27;99780.97;;;22.55;57.23
77639;BME280;66802;52.574;14.398;2023-08-01T15:56:54;99783.81;;;22.66;55.38
77639;BME280;66802;52.574;14.398;2023-08-01T15:59:19;99792.34;;;22.64;56.17
77639;BME280;66802;52.574;14.398;2023-08-01T16:01:45;99797.13;;;22.52;56.49